sensor_id;sensor_type;location;lat;lon;timestamp;P1;durP1;ratioP1;P2;durP2;ratioP2
11090;SDS011;5599;52.210;21.046;2023-03-13T00:02:19;17.43;;;11.80;;
11090;SDS011;5599;52.210;21.046;2023-03-13T00:04:48;16.67;;;10.93;;
11090;SDS011;5599;52.210;21.046;2023-03-13T00:07:19;16.73;;;10.57;;
11090;SDS011;5599;52.210;21.046;2023-03-13T00:09:48;18.67;;;10.43;;
11090;SDS011;5599;52.210;21.046;2023-03-13T00:12:17;17.07;;;11.10;;
11090;SDS011;5599;52.210;21.046;2023-03-13T00:14:46;13.30;;;9.20;;
11090;SDS011;5599;52.210;21.046;2023-03-13T00:17:16;14.33;;;9.40;;
11090;SDS011;5599;52.210;21.046;2023-03-13T00:19:47;12.23;;;8.53;;
11090;SDS011;5599;52.210;21.046;2023-03-13T00:22:17;14.60;;;9.73;;
11090;SDS011;5599;52.210;21.046;2023-03-13T00:24:46;14.50;;;8.97;;
11090;SDS011;5599;52.210;21.046;2023-03-13T00:27:16;13.50;;;9.17;;
11090;SDS011;5599;52.210;21.046;2023-03-13T00:29:45;10.90;;;7.83;;
11090;SDS011;5599;52.210;21.046;2023-03-13T00:32:16;12.90;;;7.77;;
11090;SDS011;5599;52.210;21.046;2023-03-13T00:34:47;14.20;;;8.53;;
11090;SDS011;5599;52.210;21.046;2023-03-13T00:37:16;14.00;;;8.73;;
11090;SDS011;5599;52.210;21.046;2023-03-13T00:39:46;13.30;;;7.90;;
11090;SDS011;5599;52.210;21.046;2023-03-13T00:42:16;12.20;;;7.97;;
11090;SDS011;5599;52.210;21.046;2023-03-13T00:44:45;11.03;;;7.77;;
11090;SDS011;5599;52.210;21.046;2023-03-13T00:47:14;13.80;;;7.33;;
11090;SDS011;5599;52.210;21.046;2023-03-13T00:49:44;10.30;;;7.03;;
11090;SDS011;5599;52.210;21.046;2023-03-13T00:52:14;9.37;;;6.60;;
11090;SDS011;5599;52.210;21.046;2023-03-13T00:54:44;8.73;;;6.43;;
11090;SDS011;5599;52.210;21.046;2023-03-13T00:57:13;9.90;;;6.87;;
11090;SDS011;5599;52.210;21.046;2023-03-13T00:59:43;10.27;;;6.73;;
11090;SDS011;5599;52.210;21.046;2023-03-13T01:02:13;9.40;;;7.27;;
11090;SDS011;5599;52.210;21.046;2023-03-13T01:04:42;9.83;;;6.20;;
11090;SDS011;5599;52.210;21.046;2023-03-13T01:07:12;7.83;;;6.57;;
11090;SDS011;5599;52.210;21.046;2023-03-13T01:09:43;9.80;;;7.07;;
11090;SDS011;5599;52.210;21.046;2023-03-13T01:12:12;10.33;;;7.60;;
11090;SDS011;5599;52.210;21.046;2023-03-13T01:14:41;10.63;;;7.33;;
11090;SDS011;5599;52.210;21.046;2023-03-13T01:17:11;9.93;;;7.23;;
11090;SDS011;5599;52.210;21.046;2023-03-13T01:19:40;10.00;;;7.03;;
11090;SDS011;5599;52.210;21.046;2023-03-13T01:22:09;12.30;;;7.97;;
11090;SDS011;5599;52.210;21.046;2023-03-13T01:24:39;10.73;;;7.43;;
11090;SDS011;5599;52.210;21.046;2023-03-13T01:27:10;9.40;;;7.50;;
11090;SDS011;5599;52.210;21.046;2023-03-13T01:29:39;9.63;;;6.90;;
11090;SDS011;5599;52.210;21.046;2023-03-13T01:32:09;10.97;;;7.87;;
11090;SDS011;5599;52.210;21.046;2023-03-13T01:34:38;11.07;;;6.90;;
11090;SDS011;5599;52.210;21.046;2023-03-13T01:37:07;12.20;;;7.10;;
11090;SDS011;5599;52.210;21.046;2023-03-13T01:39:37;9.73;;;7.00;;
11090;SDS011;5599;52.210;21.046;2023-03-13T01:42:06;8.80;;;6.73;;
11090;SDS011;5599;52.210;21.046;2023-03-13T01:44:49;10.60;;;7.37;;
11090;SDS011;5599;52.210;21.046;2023-03-13T01:47:21;9.40;;;6.80;;
11090;SDS011;5599;52.210;21.046;2023-03-13T01:50:17;10.60;;;7.77;;
11090;SDS011;5599;52.210;21.046;2023-03-13T01:52:55;9.57;;;6.97;;
11090;SDS011;5599;52.210;21.046;2023-03-13T01:55:28;11.10;;;7.50;;
11090;SDS011;5599;52.210;21.046;2023-03-13T01:57:57;13.37;;;7.60;;
11090;SDS011;5599;52.210;21.046;2023-03-13T02:00:29;13.93;;;7.80;;
11090;SDS011;5599;52.210;21.046;2023-03-13T02:03:03;11.70;;;7.90;;
11090;SDS011;5599;52.210;21.046;2023-03-13T02:05:38;12.27;;;8.03;;
11090;SDS011;5599;52.210;21.046;2023-03-13T02:08:11;12.23;;;8.17;;
11090;SDS011;5599;52.210;21.046;2023-03-13T02:10:47;12.00;;;8.70;;
11090;SDS011;5599;52.210;21.046;2023-03-13T02:13:21;13.57;;;8.23;;
11090;SDS011;5599;52.210;21.046;2023-03-13T02:15:51;12.40;;;8.30;;
11090;SDS011;5599;52.210;21.046;2023-03-13T02:18:21;14.73;;;8.10;;
11090;SDS011;5599;52.210;21.046;2023-03-13T02:20:52;10.60;;;7.67;;
11090;SDS011;5599;52.210;21.046;2023-03-13T02:23:33;10.87;;;8.77;;
11090;SDS011;5599;52.210;21.046;2023-03-13T02:26:06;11.13;;;7.97;;
11090;SDS011;5599;52.210;21.046;2023-03-13T02:28:36;11.50;;;7.67;;
11090;SDS011;5599;52.210;21.046;2023-03-13T02:31:10;11.93;;;7.43;;
11090;SDS011;5599;52.210;21.046;2023-03-13T02:33:40;12.00;;;8.47;;
11090;SDS011;5599;52.210;21.046;2023-03-13T02:36:14;11.30;;;8.33;;
11090;SDS011;5599;52.210;21.046;2023-03-13T02:38:47;11.40;;;7.73;;
11090;SDS011;5599;52.210;21.046;2023-03-13T02:41:25;11.93;;;8.30;;
11090;SDS011;5599;52.210;21.046;2023-03-13T02:43:58;12.00;;;7.60;;
11090;SDS011;5599;52.210;21.046;2023-03-13T02:46:27;11.53;;;8.53;;
11090;SDS011;5599;52.210;21.046;2023-03-13T02:49:09;11.17;;;7.87;;
11090;SDS011;5599;52.210;21.046;2023-03-13T02:51:48;11.57;;;8.57;;
11090;SDS011;5599;52.210;21.046;2023-03-13T02:54:18;12.30;;;7.80;;
11090;SDS011;5599;52.210;21.046;2023-03-13T02:56:53;13.00;;;8.37;;
11090;SDS011;5599;52.210;21.046;2023-03-13T02:59:25;13.30;;;8.30;;
11090;SDS011;5599;52.210;21.046;2023-03-13T03:01:55;10.73;;;8.13;;
11090;SDS011;5599;52.210;21.046;2023-03-13T03:04:25;11.50;;;8.43;;
11090;SDS011;5599;52.210;21.046;2023-03-13T03:06:55;12.30;;;7.97;;
11090;SDS011;5599;52.210;21.046;2023-03-13T03:09:25;13.33;;;8.73;;
11090;SDS011;5599;52.210;21.046;2023-03-13T03:12:00;12.83;;;7.97;;
11090;SDS011;5599;52.210;21.046;2023-03-13T03:14:29;12.77;;;8.43;;
11090;SDS011;5599;52.210;21.046;2023-03-13T03:17:00;13.17;;;8.43;;
11090;SDS011;5599;52.210;21.046;2023-03-13T03:19:29;12.37;;;8.27;;
11090;SDS011;5599;52.210;21.046;2023-03-13T03:21:59;12.27;;;8.63;;
11090;SDS011;5599;52.210;21.046;2023-03-13T03:24:31;12.17;;;8.43;;
11090;SDS011;5599;52.210;21.046;2023-03-13T03:27:04;12.27;;;8.53;;
11090;SDS011;5599;52.210;21.046;2023-03-13T03:29:40;12.80;;;8.30;;
11090;SDS011;5599;52.210;21.046;2023-03-13T03:32:10;12.10;;;8.17;;
11090;SDS011;5599;52.210;21.046;2023-03-13T03:34:40;14.17;;;7.93;;
11090;SDS011;5599;52.210;21.046;2023-03-13T03:37:10;12.57;;;8.70;;
11090;SDS011;5599;52.210;21.046;2023-03-13T03:39:39;11.97;;;8.37;;
11090;SDS011;5599;52.210;21.046;2023-03-13T03:42:10;11.13;;;7.87;;
11090;SDS011;5599;52.210;21.046;2023-03-13T03:44:39;9.97;;;7.63;;
11090;SDS011;5599;52.210;21.046;2023-03-13T03:47:10;12.87;;;7.50;;
11090;SDS011;5599;52.210;21.046;2023-03-13T03:49:43;12.27;;;8.53;;
11090;SDS011;5599;52.210;21.046;2023-03-13T03:52:14;12.67;;;8.47;;
11090;SDS011;5599;52.210;21.046;2023-03-13T03:54:44;12.50;;;7.90;;
11090;SDS011;5599;52.210;21.046;2023-03-13T03:57:16;12.70;;;8.13;;
11090;SDS011;5599;52.210;21.046;2023-03-13T03:59:45;11.57;;;8.03;;
11090;SDS011;5599;52.210;21.046;2023-03-13T04:02:14;13.40;;;8.97;;
11090;SDS011;5599;52.210;21.046;2023-03-13T04:04:44;11.53;;;7.83;;
11090;SDS011;5599;52.210;21.046;2023-03-13T04:07:19;14.30;;;8.93;;
11090;SDS011;5599;52.210;21.046;2023-03-13T04:09:49;12.93;;;8.27;;
11090;SDS011;5599;52.210;21.046;2023-03-13T04:12:26;12.07;;;7.83;;
11090;SDS011;5599;52.210;21.046;2023-03-13T04:14:56;13.00;;;8.53;;
11090;SDS011;5599;52.210;21.046;2023-03-13T04:17:25;12.27;;;7.83;;
11090;SDS011;5599;52.210;21.046;2023-03-13T04:19:55;11.53;;;8.20;;
11090;SDS011;5599;52.210;21.046;2023-03-13T04:22:24;10.80;;;8.23;;
11090;SDS011;5599;52.210;21.046;2023-03-13T04:24:57;12.27;;;8.67;;
11090;SDS011;5599;52.210;21.046;2023-03-13T04:27:31;11.63;;;8.00;;
11090;SDS011;5599;52.210;21.046;2023-03-13T04:30:01;11.67;;;8.87;;
11090;SDS011;5599;52.210;21.046;2023-03-13T04:32:44;13.53;;;8.40;;
11090;SDS011;5599;52.210;21.046;2023-03-13T04:35:35;16.60;;;9.23;;
11090;SDS011;5599;52.210;21.046;2023-03-13T04:38:29;12.30;;;9.00;;
11090;SDS011;5599;52.210;21.046;2023-03-13T04:41:08;13.33;;;8.97;;
11090;SDS011;5599;52.210;21.046;2023-03-13T04:44:02;11.80;;;8.30;;
11090;SDS011;5599;52.210;21.046;2023-03-13T04:46:49;13.03;;;8.87;;
11090;SDS011;5599;52.210;21.046;2023-03-13T04:49:46;10.87;;;9.20;;
11090;SDS011;5599;52.210;21.046;2023-03-13T04:52:34;15.10;;;9.23;;
11090;SDS011;5599;52.210;21.046;2023-03-13T04:55:22;14.33;;;9.27;;
11090;SDS011;5599;52.210;21.046;2023-03-13T04:58:14;12.90;;;8.73;;
11090;SDS011;5599;52.210;21.046;2023-03-13T05:01:03;13.07;;;9.37;;
11090;SDS011;5599;52.210;21.046;2023-03-13T05:03:52;15.93;;;10.50;;
11090;SDS011;5599;52.210;21.046;2023-03-13T05:06:44;13.87;;;9.57;;
11090;SDS011;5599;52.210;21.046;2023-03-13T05:09:51;13.20;;;9.90;;
11090;SDS011;5599;52.210;21.046;2023-03-13T05:12:39;13.97;;;9.00;;
11090;SDS011;5599;52.210;21.046;2023-03-13T05:15:17;12.40;;;9.63;;
11090;SDS011;5599;52.210;21.046;2023-03-13T05:18:16;11.07;;;8.93;;
11090;SDS011;5599;52.210;21.046;2023-03-13T05:20:57;12.87;;;9.93;;
11090;SDS011;5599;52.210;21.046;2023-03-13T05:23:49;11.73;;;9.67;;
11090;SDS011;5599;52.210;21.046;2023-03-13T05:26:25;12.33;;;10.00;;
11090;SDS011;5599;52.210;21.046;2023-03-13T05:29:23;11.67;;;9.50;;
11090;SDS011;5599;52.210;21.046;2023-03-13T05:32:11;12.93;;;9.10;;
11090;SDS011;5599;52.210;21.046;2023-03-13T05:34:45;15.53;;;10.17;;
11090;SDS011;5599;52.210;21.046;2023-03-13T05:37:41;10.83;;;8.70;;
11090;SDS011;5599;52.210;21.046;2023-03-13T05:40:29;13.63;;;10.13;;
11090;SDS011;5599;52.210;21.046;2023-03-13T05:43:17;13.73;;;10.23;;
11090;SDS011;5599;52.210;21.046;2023-03-13T05:46:05;13.17;;;9.63;;
11090;SDS011;5599;52.210;21.046;2023-03-13T05:48:49;13.20;;;10.27;;
11090;SDS011;5599;52.210;21.046;2023-03-13T05:51:36;13.60;;;10.17;;
11090;SDS011;5599;52.210;21.046;2023-03-13T05:54:25;16.77;;;10.53;;
11090;SDS011;5599;52.210;21.046;2023-03-13T05:57:30;10.97;;;9.47;;
11090;SDS011;5599;52.210;21.046;2023-03-13T06:00:10;12.27;;;10.03;;
11090;SDS011;5599;52.210;21.046;2023-03-13T06:02:50;12.43;;;9.90;;
11090;SDS011;5599;52.210;21.046;2023-03-13T06:05:26;13.13;;;11.00;;
11090;SDS011;5599;52.210;21.046;2023-03-13T06:07:58;14.73;;;10.77;;
11090;SDS011;5599;52.210;21.046;2023-03-13T06:10:29;12.93;;;10.30;;
11090;SDS011;5599;52.210;21.046;2023-03-13T06:12:59;13.70;;;11.07;;
11090;SDS011;5599;52.210;21.046;2023-03-13T06:15:49;13.67;;;10.97;;
11090;SDS011;5599;52.210;21.046;2023-03-13T06:18:38;12.80;;;11.10;;
11090;SDS011;5599;52.210;21.046;2023-03-13T06:21:07;13.90;;;11.03;;
11090;SDS011;5599;52.210;21.046;2023-03-13T06:23:38;14.10;;;11.37;;
11090;SDS011;5599;52.210;21.046;2023-03-13T06:26:08;15.07;;;10.60;;
11090;SDS011;5599;52.210;21.046;2023-03-13T06:28:37;13.50;;;11.80;;
11090;SDS011;5599;52.210;21.046;2023-03-13T06:31:07;17.57;;;12.17;;
11090;SDS011;5599;52.210;21.046;2023-03-13T06:33:36;16.63;;;11.67;;
11090;SDS011;5599;52.210;21.046;2023-03-13T06:36:06;16.73;;;11.83;;
11090;SDS011;5599;52.210;21.046;2023-03-13T06:38:36;17.10;;;11.87;;
11090;SDS011;5599;52.210;21.046;2023-03-13T06:41:06;15.43;;;12.13;;
11090;SDS011;5599;52.210;21.046;2023-03-13T06:43:36;14.20;;;12.07;;
11090;SDS011;5599;52.210;21.046;2023-03-13T06:46:07;15.80;;;12.50;;
11090;SDS011;5599;52.210;21.046;2023-03-13T06:48:43;15.07;;;12.47;;
11090;SDS011;5599;52.210;21.046;2023-03-13T06:51:13;14.93;;;11.83;;
11090;SDS011;5599;52.210;21.046;2023-03-13T06:53:43;16.63;;;12.13;;
11090;SDS011;5599;52.210;21.046;2023-03-13T06:56:14;17.10;;;11.93;;
11090;SDS011;5599;52.210;21.046;2023-03-13T06:58:45;15.93;;;12.20;;
11090;SDS011;5599;52.210;21.046;2023-03-13T07:01:15;15.00;;;12.07;;
11090;SDS011;5599;52.210;21.046;2023-03-13T07:03:46;19.93;;;12.50;;
11090;SDS011;5599;52.210;21.046;2023-03-13T07:06:16;13.27;;;10.73;;
11090;SDS011;5599;52.210;21.046;2023-03-13T07:08:45;15.80;;;11.23;;
11090;SDS011;5599;52.210;21.046;2023-03-13T07:11:17;13.33;;;11.23;;
11090;SDS011;5599;52.210;21.046;2023-03-13T07:13:46;14.57;;;10.90;;
11090;SDS011;5599;52.210;21.046;2023-03-13T07:16:16;13.10;;;11.60;;
11090;SDS011;5599;52.210;21.046;2023-03-13T07:18:45;13.70;;;10.60;;
11090;SDS011;5599;52.210;21.046;2023-03-13T07:21:14;12.90;;;10.37;;
11090;SDS011;5599;52.210;21.046;2023-03-13T07:23:44;13.43;;;11.00;;
11090;SDS011;5599;52.210;21.046;2023-03-13T07:26:14;19.27;;;11.20;;
11090;SDS011;5599;52.210;21.046;2023-03-13T07:28:45;14.97;;;10.10;;
11090;SDS011;5599;52.210;21.046;2023-03-13T07:31:15;14.00;;;11.53;;
11090;SDS011;5599;52.210;21.046;2023-03-13T07:33:46;14.17;;;10.63;;
11090;SDS011;5599;52.210;21.046;2023-03-13T07:36:18;17.00;;;10.70;;
11090;SDS011;5599;52.210;21.046;2023-03-13T07:38:48;14.50;;;11.07;;
11090;SDS011;5599;52.210;21.046;2023-03-13T07:41:18;15.43;;;10.63;;
11090;SDS011;5599;52.210;21.046;2023-03-13T07:43:49;11.50;;;10.10;;
11090;SDS011;5599;52.210;21.046;2023-03-13T07:46:18;13.37;;;10.13;;
11090;SDS011;5599;52.210;21.046;2023-03-13T07:48:48;13.30;;;10.53;;
11090;SDS011;5599;52.210;21.046;2023-03-13T07:51:20;12.73;;;10.27;;
11090;SDS011;5599;52.210;21.046;2023-03-13T07:54:06;12.90;;;10.20;;
11090;SDS011;5599;52.210;21.046;2023-03-13T07:56:36;12.87;;;9.47;;
11090;SDS011;5599;52.210;21.046;2023-03-13T07:59:07;17.63;;;10.70;;
11090;SDS011;5599;52.210;21.046;2023-03-13T08:01:37;14.03;;;9.80;;
11090;SDS011;5599;52.210;21.046;2023-03-13T08:04:08;13.93;;;9.57;;
11090;SDS011;5599;52.210;21.046;2023-03-13T08:06:40;12.07;;;9.07;;
11090;SDS011;5599;52.210;21.046;2023-03-13T08:09:10;14.00;;;9.83;;
11090;SDS011;5599;52.210;21.046;2023-03-13T08:11:39;15.73;;;10.03;;
11090;SDS011;5599;52.210;21.046;2023-03-13T08:14:12;12.73;;;9.83;;
11090;SDS011;5599;52.210;21.046;2023-03-13T08:16:41;13.13;;;9.83;;
11090;SDS011;5599;52.210;21.046;2023-03-13T08:19:10;12.43;;;10.33;;
11090;SDS011;5599;52.210;21.046;2023-03-13T08:21:40;12.90;;;10.43;;
11090;SDS011;5599;52.210;21.046;2023-03-13T08:24:09;10.93;;;9.83;;
11090;SDS011;5599;52.210;21.046;2023-03-13T08:26:40;11.93;;;9.97;;
11090;SDS011;5599;52.210;21.046;2023-03-13T08:29:12;13.10;;;10.50;;
11090;SDS011;5599;52.210;21.046;2023-03-13T08:31:43;13.17;;;10.50;;
11090;SDS011;5599;52.210;21.046;2023-03-13T08:34:14;15.30;;;10.10;;
11090;SDS011;5599;52.210;21.046;2023-03-13T08:36:44;15.93;;;11.57;;
11090;SDS011;5599;52.210;21.046;2023-03-13T08:39:14;12.00;;;9.63;;
11090;SDS011;5599;52.210;21.046;2023-03-13T08:41:44;13.93;;;10.63;;
11090;SDS011;5599;52.210;21.046;2023-03-13T08:44:16;13.67;;;9.60;;
11090;SDS011;5599;52.210;21.046;2023-03-13T08:46:47;14.33;;;11.20;;
11090;SDS011;5599;52.210;21.046;2023-03-13T08:49:16;13.50;;;10.00;;
11090;SDS011;5599;52.210;21.046;2023-03-13T08:51:46;14.13;;;10.40;;
11090;SDS011;5599;52.210;21.046;2023-03-13T08:54:15;12.40;;;10.20;;
11090;SDS011;5599;52.210;21.046;2023-03-13T08:56:44;12.27;;;9.87;;
11090;SDS011;5599;52.210;21.046;2023-03-13T08:59:13;14.43;;;10.00;;
11090;SDS011;5599;52.210;21.046;2023-03-13T09:01:45;14.57;;;9.87;;
11090;SDS011;5599;52.210;21.046;2023-03-13T09:04:14;12.13;;;9.57;;
11090;SDS011;5599;52.210;21.046;2023-03-13T09:06:44;13.10;;;10.00;;
11090;SDS011;5599;52.210;21.046;2023-03-13T09:09:13;13.13;;;10.20;;
11090;SDS011;5599;52.210;21.046;2023-03-13T09:11:42;14.07;;;9.90;;
11090;SDS011;5599;52.210;21.046;2023-03-13T09:14:12;13.93;;;8.87;;
11090;SDS011;5599;52.210;21.046;2023-03-13T09:16:43;12.20;;;9.47;;
11090;SDS011;5599;52.210;21.046;2023-03-13T09:19:14;9.67;;;8.47;;
11090;SDS011;5599;52.210;21.046;2023-03-13T09:21:43;10.27;;;7.87;;
11090;SDS011;5599;52.210;21.046;2023-03-13T09:24:15;12.10;;;8.17;;
11090;SDS011;5599;52.210;21.046;2023-03-13T09:26:44;10.27;;;7.97;;
11090;SDS011;5599;52.210;21.046;2023-03-13T09:29:27;11.63;;;8.00;;
11090;SDS011;5599;52.210;21.046;2023-03-13T09:31:58;9.73;;;7.77;;
11090;SDS011;5599;52.210;21.046;2023-03-13T09:34:28;10.27;;;7.03;;
11090;SDS011;5599;52.210;21.046;2023-03-13T09:36:58;10.57;;;6.63;;
11090;SDS011;5599;52.210;21.046;2023-03-13T09:39:27;8.70;;;6.27;;
11090;SDS011;5599;52.210;21.046;2023-03-13T09:41:59;7.23;;;5.80;;
11090;SDS011;5599;52.210;21.046;2023-03-13T09:44:37;7.03;;;6.17;;
11090;SDS011;5599;52.210;21.046;2023-03-13T09:47:13;8.73;;;6.13;;
11090;SDS011;5599;52.210;21.046;2023-03-13T09:49:49;11.33;;;6.37;;
11090;SDS011;5599;52.210;21.046;2023-03-13T09:52:22;8.33;;;6.40;;
11090;SDS011;5599;52.210;21.046;2023-03-13T09:54:54;10.67;;;6.40;;
11090;SDS011;5599;52.210;21.046;2023-03-13T09:57:29;9.13;;;6.03;;
11090;SDS011;5599;52.210;21.046;2023-03-13T10:00:03;10.30;;;5.80;;
11090;SDS011;5599;52.210;21.046;2023-03-13T10:02:40;7.40;;;5.23;;
11090;SDS011;5599;52.210;21.046;2023-03-13T10:05:14;9.70;;;6.27;;
11090;SDS011;5599;52.210;21.046;2023-03-13T10:07:49;11.53;;;5.57;;
11090;SDS011;5599;52.210;21.046;2023-03-13T10:10:20;9.50;;;5.37;;
11090;SDS011;5599;52.210;21.046;2023-03-13T10:12:58;7.07;;;5.27;;
11090;SDS011;5599;52.210;21.046;2023-03-13T10:15:38;9.50;;;5.40;;
11090;SDS011;5599;52.210;21.046;2023-03-13T10:18:17;13.77;;;5.87;;
11090;SDS011;5599;52.210;21.046;2023-03-13T10:20:48;8.37;;;4.93;;
11090;SDS011;5599;52.210;21.046;2023-03-13T10:23:21;7.07;;;5.07;;
11090;SDS011;5599;52.210;21.046;2023-03-13T10:25:55;10.43;;;5.20;;
11090;SDS011;5599;52.210;21.046;2023-03-13T10:28:25;8.60;;;5.43;;
11090;SDS011;5599;52.210;21.046;2023-03-13T10:30:57;8.07;;;5.23;;
11090;SDS011;5599;52.210;21.046;2023-03-13T10:33:33;13.10;;;5.63;;
11090;SDS011;5599;52.210;21.046;2023-03-13T10:36:06;8.77;;;5.77;;
11090;SDS011;5599;52.210;21.046;2023-03-13T10:38:47;9.40;;;5.47;;
11090;SDS011;5599;52.210;21.046;2023-03-13T10:41:19;7.57;;;4.80;;
11090;SDS011;5599;52.210;21.046;2023-03-13T10:43:54;7.67;;;5.13;;
11090;SDS011;5599;52.210;21.046;2023-03-13T10:46:29;10.47;;;5.27;;
11090;SDS011;5599;52.210;21.046;2023-03-13T10:49:02;10.97;;;4.83;;
11090;SDS011;5599;52.210;21.046;2023-03-13T10:51:40;7.30;;;4.53;;
11090;SDS011;5599;52.210;21.046;2023-03-13T10:54:18;9.60;;;5.37;;
11090;SDS011;5599;52.210;21.046;2023-03-13T10:56:51;8.90;;;5.40;;
11090;SDS011;5599;52.210;21.046;2023-03-13T10:59:38;7.97;;;5.07;;
11090;SDS011;5599;52.210;21.046;2023-03-13T11:02:21;9.17;;;4.73;;
11090;SDS011;5599;52.210;21.046;2023-03-13T11:04:55;10.47;;;5.07;;
11090;SDS011;5599;52.210;21.046;2023-03-13T11:07:27;8.07;;;4.80;;
11090;SDS011;5599;52.210;21.046;2023-03-13T11:10:00;7.47;;;4.90;;
11090;SDS011;5599;52.210;21.046;2023-03-13T11:12:41;8.10;;;4.80;;
11090;SDS011;5599;52.210;21.046;2023-03-13T11:15:14;8.97;;;4.47;;
11090;SDS011;5599;52.210;21.046;2023-03-13T11:17:46;10.07;;;5.30;;
11090;SDS011;5599;52.210;21.046;2023-03-13T11:20:22;7.83;;;4.80;;
11090;SDS011;5599;52.210;21.046;2023-03-13T11:22:59;9.43;;;4.90;;
11090;SDS011;5599;52.210;21.046;2023-03-13T11:25:41;10.77;;;5.40;;
11090;SDS011;5599;52.210;21.046;2023-03-13T11:28:28;9.27;;;4.83;;
11090;SDS011;5599;52.210;21.046;2023-03-13T11:31:08;10.63;;;5.10;;
11090;SDS011;5599;52.210;21.046;2023-03-13T11:33:46;9.90;;;5.10;;
11090;SDS011;5599;52.210;21.046;2023-03-13T11:36:27;13.60;;;5.47;;
11090;SDS011;5599;52.210;21.046;2023-03-13T11:39:05;8.67;;;4.53;;
11090;SDS011;5599;52.210;21.046;2023-03-13T11:41:53;11.43;;;5.30;;
11090;SDS011;5599;52.210;21.046;2023-03-13T11:44:30;10.73;;;4.77;;
11090;SDS011;5599;52.210;21.046;2023-03-13T11:50:22;9.83;;;4.67;;
11090;SDS011;5599;52.210;21.046;2023-03-13T11:53:03;10.37;;;5.07;;
11090;SDS011;5599;52.210;21.046;2023-03-13T11:55:53;8.90;;;4.57;;
11090;SDS011;5599;52.210;21.046;2023-03-13T12:01:31;10.33;;;5.47;;
11090;SDS011;5599;52.210;21.046;2023-03-13T12:04:05;10.03;;;5.23;;
11090;SDS011;5599;52.210;21.046;2023-03-13T12:06:43;9.70;;;5.23;;
11090;SDS011;5599;52.210;21.046;2023-03-13T12:09:20;14.13;;;5.60;;
11090;SDS011;5599;52.210;21.046;2023-03-13T12:11:56;10.03;;;5.07;;
11090;SDS011;5599;52.210;21.046;2023-03-13T12:14:30;9.23;;;5.37;;
11090;SDS011;5599;52.210;21.046;2023-03-13T12:17:04;8.23;;;4.77;;
11090;SDS011;5599;52.210;21.046;2023-03-13T12:19:39;10.97;;;4.90;;
11090;SDS011;5599;52.210;21.046;2023-03-13T12:22:17;9.50;;;4.67;;
11090;SDS011;5599;52.210;21.046;2023-03-13T12:24:54;9.47;;;4.60;;
11090;SDS011;5599;52.210;21.046;2023-03-13T12:27:33;9.80;;;4.90;;
11090;SDS011;5599;52.210;21.046;2023-03-13T12:30:06;8.10;;;4.53;;
11090;SDS011;5599;52.210;21.046;2023-03-13T12:32:51;9.97;;;4.70;;
11090;SDS011;5599;52.210;21.046;2023-03-13T12:35:26;7.67;;;4.37;;
11090;SDS011;5599;52.210;21.046;2023-03-13T12:37:58;14.37;;;4.77;;
11090;SDS011;5599;52.210;21.046;2023-03-13T12:40:36;9.13;;;4.53;;
11090;SDS011;5599;52.210;21.046;2023-03-13T12:43:09;8.97;;;4.60;;
11090;SDS011;5599;52.210;21.046;2023-03-13T12:45:48;9.47;;;4.60;;
11090;SDS011;5599;52.210;21.046;2023-03-13T12:48:47;9.53;;;5.13;;
11090;SDS011;5599;52.210;21.046;2023-03-13T12:51:32;8.40;;;4.40;;
11090;SDS011;5599;52.210;21.046;2023-03-13T12:54:11;12.63;;;5.00;;
11090;SDS011;5599;52.210;21.046;2023-03-13T12:56:57;10.20;;;5.13;;
11090;SDS011;5599;52.210;21.046;2023-03-13T12:59:37;9.97;;;5.33;;
11090;SDS011;5599;52.210;21.046;2023-03-13T13:02:13;13.33;;;4.67;;
11090;SDS011;5599;52.210;21.046;2023-03-13T13:04:46;10.77;;;5.17;;
11090;SDS011;5599;52.210;21.046;2023-03-13T13:07:19;10.07;;;4.97;;
11090;SDS011;5599;52.210;21.046;2023-03-13T13:10:00;11.40;;;4.90;;
11090;SDS011;5599;52.210;21.046;2023-03-13T13:12:33;15.10;;;5.53;;
11090;SDS011;5599;52.210;21.046;2023-03-13T13:15:10;11.03;;;5.03;;
11090;SDS011;5599;52.210;21.046;2023-03-13T13:17:55;12.67;;;5.17;;
11090;SDS011;5599;52.210;21.046;2023-03-13T13:20:37;8.60;;;4.80;;
11090;SDS011;5599;52.210;21.046;2023-03-13T13:23:21;10.73;;;4.60;;
11090;SDS011;5599;52.210;21.046;2023-03-13T13:32:29;11.60;;;4.70;;
11090;SDS011;5599;52.210;21.046;2023-03-13T13:35:02;11.60;;;5.20;;
11090;SDS011;5599;52.210;21.046;2023-03-13T13:37:33;10.03;;;5.20;;
11090;SDS011;5599;52.210;21.046;2023-03-13T13:40:16;11.23;;;5.13;;
11090;SDS011;5599;52.210;21.046;2023-03-13T13:42:48;10.67;;;4.70;;
11090;SDS011;5599;52.210;21.046;2023-03-13T13:48:28;12.83;;;5.87;;
11090;SDS011;5599;52.210;21.046;2023-03-13T13:51:22;10.33;;;5.27;;
11090;SDS011;5599;52.210;21.046;2023-03-13T13:53:53;11.57;;;5.60;;
11090;SDS011;5599;52.210;21.046;2023-03-13T13:56:35;10.93;;;4.60;;
11090;SDS011;5599;52.210;21.046;2023-03-13T13:59:20;10.53;;;5.37;;
11090;SDS011;5599;52.210;21.046;2023-03-13T14:02:11;13.03;;;5.13;;
11090;SDS011;5599;52.210;21.046;2023-03-13T14:04:51;12.50;;;5.40;;
11090;SDS011;5599;52.210;21.046;2023-03-13T14:07:45;9.07;;;5.37;;
11090;SDS011;5599;52.210;21.046;2023-03-13T14:10:25;8.83;;;5.00;;
11090;SDS011;5599;52.210;21.046;2023-03-13T14:13:10;12.33;;;4.80;;
11090;SDS011;5599;52.210;21.046;2023-03-13T14:15:42;10.47;;;4.83;;
11090;SDS011;5599;52.210;21.046;2023-03-13T14:18:16;14.43;;;5.53;;
11090;SDS011;5599;52.210;21.046;2023-03-13T14:20:52;9.93;;;5.10;;
11090;SDS011;5599;52.210;21.046;2023-03-13T14:23:28;10.63;;;4.97;;
11090;SDS011;5599;52.210;21.046;2023-03-13T14:26:07;12.43;;;5.03;;
11090;SDS011;5599;52.210;21.046;2023-03-13T14:28:39;12.53;;;4.93;;
11090;SDS011;5599;52.210;21.046;2023-03-13T14:31:10;9.20;;;4.47;;
11090;SDS011;5599;52.210;21.046;2023-03-13T14:33:50;11.87;;;4.93;;
11090;SDS011;5599;52.210;21.046;2023-03-13T14:36:21;9.20;;;5.30;;
11090;SDS011;5599;52.210;21.046;2023-03-13T14:38:52;14.47;;;6.27;;
11090;SDS011;5599;52.210;21.046;2023-03-13T14:41:26;11.70;;;5.00;;
11090;SDS011;5599;52.210;21.046;2023-03-13T14:44:02;11.80;;;5.63;;
11090;SDS011;5599;52.210;21.046;2023-03-13T14:46:33;11.10;;;5.80;;
11090;SDS011;5599;52.210;21.046;2023-03-13T14:49:05;13.57;;;6.57;;
11090;SDS011;5599;52.210;21.046;2023-03-13T14:51:38;11.90;;;5.57;;
11090;SDS011;5599;52.210;21.046;2023-03-13T14:54:24;11.90;;;5.30;;
11090;SDS011;5599;52.210;21.046;2023-03-13T14:57:03;14.13;;;5.57;;
11090;SDS011;5599;52.210;21.046;2023-03-13T14:59:52;10.90;;;5.40;;
11090;SDS011;5599;52.210;21.046;2023-03-13T15:02:23;9.77;;;4.50;;
11090;SDS011;5599;52.210;21.046;2023-03-13T15:04:56;10.27;;;4.90;;
11090;SDS011;5599;52.210;21.046;2023-03-13T15:07:35;8.47;;;4.77;;
11090;SDS011;5599;52.210;21.046;2023-03-13T15:10:19;12.33;;;4.60;;
11090;SDS011;5599;52.210;21.046;2023-03-13T15:12:49;11.57;;;5.03;;
11090;SDS011;5599;52.210;21.046;2023-03-13T15:15:19;13.33;;;5.40;;
11090;SDS011;5599;52.210;21.046;2023-03-13T15:17:49;10.00;;;4.53;;
11090;SDS011;5599;52.210;21.046;2023-03-13T15:20:18;11.50;;;5.37;;
11090;SDS011;5599;52.210;21.046;2023-03-13T15:22:50;9.73;;;5.13;;
11090;SDS011;5599;52.210;21.046;2023-03-13T15:25:22;7.37;;;4.87;;
11090;SDS011;5599;52.210;21.046;2023-03-13T15:27:51;9.30;;;4.70;;
11090;SDS011;5599;52.210;21.046;2023-03-13T15:30:21;10.63;;;5.00;;
11090;SDS011;5599;52.210;21.046;2023-03-13T15:32:50;8.27;;;5.07;;
11090;SDS011;5599;52.210;21.046;2023-03-13T15:35:24;10.37;;;4.90;;
11090;SDS011;5599;52.210;21.046;2023-03-13T15:37:57;9.73;;;4.50;;